Time;durP1;ratioP1;P1;durP2;ratioP2;P2;SDS_P1;SDS_P2;PMS_P1;PMS_P2;Temp;Humidity;BMP_temperature;BMP_pressure;BME280_temperature;BME280_humidity;BME280_pressure;Samples;Min_cycle;Max_cycle;Signal;HPM_P1;HPM_P2
2022/12/07 00:01:14;;;;;;;8.32;3.00;;;2.70;99.90;;;;;;5080751;28;20032;-63
2022/12/07 00:03:42;;;;;;;7.05;3.03;;;2.70;99.90;;;;;;5080941;28;20040;-66
2022/12/07 00:06:09;;;;;;;14.05;3.50;;;2.70;99.90;;;;;;5078370;28;20118;-63
2022/12/07 00:08:36;;;;;;;9.00;2.80;;;2.70;99.90;;;;;;5077732;28;20128;-63
2022/12/07 00:11:03;;;;;;;9.52;2.90;;;2.70;99.90;;;;;;5077892;28;20043;-63
2022/12/07 00:13:29;;;;;;;6.90;2.70;;;2.80;99.90;;;;;;5076611;28;20578;-63
2022/12/07 00:15:55;;;;;;;8.60;2.85;;;2.80;99.90;;;;;;5080169;28;20058;-65
2022/12/07 00:18:21;;;;;;;16.00;3.30;;;2.90;99.90;;;;;;5084005;28;20040;-63
2022/12/07 00:20:46;;;;;;;9.85;2.55;;;2.90;99.90;;;;;;5083381;28;20729;-63
2022/12/07 00:23:12;;;;;;;10.07;2.58;;;2.90;99.90;;;;;;5076499;28;20054;-64
2022/12/07 00:25:37;;;;;;;11.15;2.58;;;2.90;99.90;;;;;;5078447;28;20064;-63
2022/12/07 00:28:03;;;;;;;6.28;2.60;;;2.90;99.90;;;;;;5080860;28;20069;-65
2022/12/07 00:30:29;;;;;;;6.75;2.13;;;2.80;99.90;;;;;;5078421;28;20089;-64
2022/12/07 00:32:54;;;;;;;7.07;1.88;;;2.80;99.90;;;;;;5074474;28;20094;-64
2022/12/07 00:35:20;;;;;;;6.70;1.92;;;2.70;99.90;;;;;;5080685;28;20040;-62
2022/12/07 00:37:45;;;;;;;4.85;2.15;;;2.70;99.90;;;;;;5076997;28;20062;-65
2022/12/07 00:40:11;;;;;;;8.20;1.90;;;2.60;99.90;;;;;;5085411;28;20131;-64
2022/12/07 00:42:37;;;;;;;2.05;1.35;;;2.60;99.90;;;;;;5081179;28;20075;-64
2022/12/07 00:45:03;;;;;;;4.85;1.60;;;2.50;99.90;;;;;;5081177;28;20063;-63
2022/12/07 00:47:28;;;;;;;6.65;1.77;;;2.50;99.90;;;;;;5080940;28;20686;-62
2022/12/07 00:49:54;;;;;;;4.43;1.33;;;2.50;99.90;;;;;;5084164;28;20060;-63
2022/12/07 00:52:19;;;;;;;9.32;1.73;;;2.50;99.90;;;;;;5082273;28;20075;-63
2022/12/07 00:54:45;;;;;;;5.82;1.45;;;2.50;99.90;;;;;;5081475;28;20044;-64
2022/12/07 00:57:10;;;;;;;5.57;1.85;;;2.40;99.90;;;;;;5090300;28;20422;-64
2022/12/07 00:59:36;;;;;;;6.22;1.35;;;2.40;99.90;;;;;;5082420;28;20043;-65
2022/12/07 01:02:01;;;;;;;4.78;1.40;;;2.30;99.90;;;;;;5084435;28;20115;-64
2022/12/07 01:04:27;;;;;;;6.82;1.60;;;2.30;99.90;;;;;;5089264;28;20059;-64
2022/12/07 01:06:52;;;;;;;7.15;1.50;;;2.30;99.90;;;;;;5086747;28;20119;-63
2022/12/07 01:09:18;;;;;;;7.28;1.40;;;2.40;99.90;;;;;;5089714;28;20067;-64
2022/12/07 01:11:43;;;;;;;7.28;1.52;;;2.40;99.90;;;;;;5080853;28;20093;-63
2022/12/07 01:14:09;;;;;;;9.98;1.80;;;2.50;99.90;;;;;;5081300;28;20109;-63
2022/12/07 01:16:35;;;;;;;16.98;1.98;;;2.50;99.90;;;;;;5080961;28;20043;-63
2022/12/07 01:19:01;;;;;;;8.35;1.60;;;2.60;99.90;;;;;;5083839;28;20044;-63
2022/12/07 01:21:35;;;;;;;7.78;1.85;;;2.70;99.90;;;;;;5082860;28;20032;-64
2022/12/07 01:24:02;;;;;;;6.28;1.63;;;2.60;99.90;;;;;;5089242;28;20039;-63
2022/12/07 01:26:28;;;;;;;6.82;1.90;;;2.60;99.90;;;;;;5065630;28;20745;-63
2022/12/07 01:28:55;;;;;;;6.70;1.92;;;2.60;99.90;;;;;;5084208;28;20044;-64
2022/12/07 01:31:23;;;;;;;5.05;1.45;;;2.50;99.90;;;;;;5082582;28;20044;-63
2022/12/07 01:33:52;;;;;;;5.03;1.60;;;2.60;99.90;;;;;;5097483;28;20036;-63
2022/12/07 01:36:23;;;;;;;4.45;1.40;;;2.60;99.90;;;;;;5085927;28;20491;-63
2022/12/07 01:38:52;;;;;;;7.15;1.58;;;2.60;99.90;;;;;;5080857;28;20135;-65
2022/12/07 01:41:19;;;;;;;5.55;1.60;;;2.50;99.90;;;;;;5080256;28;20032;-63
2022/12/07 01:44:15;;;;;;;7.63;1.60;;;2.50;99.90;;;;;;5084744;28;20039;-64
2022/12/07 01:46:44;;;;;;;6.22;1.38;;;2.40;99.90;;;;;;5085665;28;20360;-63
2022/12/07 01:49:15;;;;;;;4.20;1.40;;;2.40;99.90;;;;;;5083196;28;20047;-66
2022/12/07 01:51:43;;;;;;;5.30;1.77;;;2.40;99.90;;;;;;5078827;28;20036;-66
2022/12/07 01:54:11;;;;;;;6.28;1.30;;;2.30;99.90;;;;;;5087256;28;20430;-63
2022/12/07 01:56:38;;;;;;;5.40;1.38;;;2.30;99.90;;;;;;5081236;28;20035;-65
2022/12/07 01:59:03;;;;;;;7.75;1.40;;;2.20;99.90;;;;;;5079162;28;20068;-64
2022/12/07 02:01:29;;;;;;;9.52;1.52;;;2.20;99.90;;;;;;5081877;28;20526;-63
2022/12/07 02:03:55;;;;;;;5.20;1.30;;;2.20;99.90;;;;;;5082606;28;20028;-63
2022/12/07 02:06:24;;;;;;;2.25;1.20;;;2.20;99.90;;;;;;5090413;28;20066;-65
2022/12/07 02:08:50;;;;;;;5.30;1.25;;;2.20;99.90;;;;;;5076219;28;20047;-63
2022/12/07 02:11:16;;;;;;;10.05;1.58;;;2.20;99.90;;;;;;5082623;28;20459;-63
2022/12/07 02:13:44;;;;;;;4.43;1.30;;;2.20;99.90;;;;;;5081297;28;20060;-63
2022/12/07 02:16:34;;;;;;;5.03;1.15;;;2.30;99.90;;;;;;5077643;28;20103;-63
2022/12/07 02:19:18;;;;;;;6.70;1.08;;;2.30;99.90;;;;;;5073386;28;20048;-65
2022/12/07 02:22:18;;;;;;;5.28;1.20;;;2.40;99.90;;;;;;5083664;28;20387;-64
2022/12/07 02:24:54;;;;;;;3.70;1.20;;;2.50;99.90;;;;;;5079592;28;20047;-63
2022/12/07 02:27:51;;;;;;;5.38;0.90;;;2.50;99.90;;;;;;5085359;28;20352;-65
2022/12/07 02:30:18;;;;;;;6.70;1.25;;;2.50;99.90;;;;;;5078822;28;20051;-64
2022/12/07 02:32:58;;;;;;;7.70;1.33;;;2.50;99.90;;;;;;5080612;28;20094;-65
2022/12/07 02:35:31;;;;;;;5.75;1.20;;;2.60;99.90;;;;;;5077924;28;20605;-63
2022/12/07 02:38:15;;;;;;;4.80;1.33;;;2.50;99.90;;;;;;5076941;28;20075;-66
2022/12/07 02:40:53;;;;;;;3.78;1.05;;;2.40;99.90;;;;;;5080861;28;20154;-64
2022/12/07 02:43:33;;;;;;;8.18;1.15;;;2.40;99.90;;;;;;5082608;28;20036;-64
2022/12/07 02:46:08;;;;;;;3.20;0.90;;;2.30;99.90;;;;;;5081118;28;20063;-65
2022/12/07 02:48:34;;;;;;;3.47;1.20;;;2.30;99.90;;;;;;5097785;28;20032;-66
2022/12/07 02:50:59;;;;;;;5.30;1.08;;;2.30;99.90;;;;;;5075939;28;20105;-66
2022/12/07 02:53:34;;;;;;;7.80;1.42;;;2.20;99.90;;;;;;5085165;28;20036;-64
2022/12/07 02:56:35;;;;;;;8.02;1.20;;;2.20;99.90;;;;;;5084731;28;20072;-65
2022/12/07 02:59:12;;;;;;;6.55;1.48;;;2.30;99.90;;;;;;5085329;28;20125;-64
2022/12/07 03:01:53;;;;;;;6.43;1.63;;;2.50;99.90;;;;;;5075083;28;20044;-64
2022/12/07 03:04:43;;;;;;;6.43;1.10;;;2.50;99.90;;;;;;5085356;28;20122;-64
2022/12/07 03:07:23;;;;;;;6.10;0.75;;;2.60;99.90;;;;;;5074844;28;20044;-64
2022/12/07 03:09:59;;;;;;;10.07;1.52;;;2.60;99.90;;;;;;5073323;28;20372;-65
2022/12/07 03:13:16;;;;;;;8.75;1.10;;;2.70;99.90;;;;;;5085003;28;20051;-64
2022/12/07 03:16:19;;;;;;;8.70;1.10;;;2.80;99.90;;;;;;5025253;28;20041;-64
2022/12/07 03:18:54;;;;;;;3.70;0.95;;;2.80;99.90;;;;;;5075772;28;20063;-63
2022/12/07 03:21:27;;;;;;;6.75;1.10;;;2.80;99.90;;;;;;5080370;28;20040;-63
2022/12/07 03:23:57;;;;;;;5.05;1.00;;;2.80;99.90;;;;;;5079733;28;20078;-63
2022/12/07 03:26:31;;;;;;;5.60;1.20;;;2.80;99.90;;;;;;5082073;28;20082;-63
2022/12/07 03:29:00;;;;;;;3.47;0.93;;;2.70;99.90;;;;;;5082814;28;20035;-65
2022/12/07 03:31:31;;;;;;;7.88;1.00;;;2.70;99.90;;;;;;5069976;28;20064;-64
2022/12/07 03:34:11;;;;;;;5.30;1.40;;;2.70;99.90;;;;;;5088763;28;20075;-64
2022/12/07 03:36:54;;;;;;;9.20;1.33;;;2.80;99.90;;;;;;5082051;28;20535;-64
2022/12/07 03:39:27;;;;;;;3.38;0.77;;;2.80;99.90;;;;;;5083911;28;20050;-64
2022/12/07 03:41:54;;;;;;;3.08;1.08;;;2.80;99.90;;;;;;5086523;28;20051;-64
2022/12/07 03:44:21;;;;;;;6.50;0.98;;;2.70;99.90;;;;;;5090635;28;20411;-64
2022/12/07 03:47:10;;;;;;;3.40;0.63;;;2.70;99.90;;;;;;5090104;28;20040;-64
2022/12/07 03:49:58;;;;;;;5.68;1.00;;;2.60;99.90;;;;;;5088003;28;20467;-64
2022/12/07 03:52:32;;;;;;;8.70;0.70;;;2.50;99.90;;;;;;5073559;28;20044;-65
2022/12/07 03:55:00;;;;;;;7.45;0.90;;;2.60;99.90;;;;;;5079817;28;20051;-64
2022/12/07 03:57:29;;;;;;;3.63;0.82;;;2.70;99.90;;;;;;5085328;28;20036;-63
2022/12/07 03:59:56;;;;;;;2.42;0.77;;;2.70;99.90;;;;;;5086288;28;20511;-63
2022/12/07 04:02:23;;;;;;;1.48;0.65;;;2.80;99.90;;;;;;5088819;28;20043;-65
2022/12/07 04:04:49;;;;;;;3.88;0.88;;;2.80;99.90;;;;;;5088578;28;20089;-63
2022/12/07 04:07:14;;;;;;;9.32;1.33;;;2.90;99.90;;;;;;5088486;28;20036;-64
2022/12/07 04:09:40;;;;;;;5.53;0.95;;;3.00;99.90;;;;;;5088396;28;20048;-64
2022/12/07 04:12:05;;;;;;;4.70;0.90;;;3.00;99.90;;;;;;5075284;28;20039;-64
2022/12/07 04:14:31;;;;;;;7.63;0.70;;;3.10;99.90;;;;;;5079712;28;20637;-67
2022/12/07 04:16:58;;;;;;;2.28;0.90;;;3.00;99.90;;;;;;5086591;28;20048;-66
2022/12/07 04:19:30;;;;;;;4.47;0.95;;;3.00;99.90;;;;;;5092565;28;20086;-65
2022/12/07 04:21:57;;;;;;;5.40;0.90;;;3.00;99.90;;;;;;5083137;28;20036;-65
2022/12/07 04:24:23;;;;;;;8.90;0.93;;;3.00;99.90;;;;;;5090762;28;20036;-65
2022/12/07 04:26:49;;;;;;;4.13;0.70;;;3.00;99.90;;;;;;5085398;28;20028;-64
2022/12/07 04:29:16;;;;;;;4.68;1.10;;;2.90;99.90;;;;;;5062662;28;20050;-64
2022/12/07 04:31:42;;;;;;;5.47;0.90;;;2.90;99.90;;;;;;5081021;28;20136;-64
2022/12/07 04:34:08;;;;;;;7.45;0.90;;;2.80;99.90;;;;;;5075996;28;20040;-64
2022/12/07 04:36:34;;;;;;;8.32;0.82;;;2.80;99.90;;;;;;5083337;28;20040;-65
2022/12/07 04:39:00;;;;;;;3.78;0.70;;;2.70;99.90;;;;;;5080675;28;20090;-64
2022/12/07 04:41:27;;;;;;;4.75;0.90;;;2.70;99.90;;;;;;5082470;28;20032;-64
2022/12/07 04:43:57;;;;;;;4.55;0.95;;;2.70;99.90;;;;;;5084007;28;20043;-67
2022/12/07 04:46:24;;;;;;;4.70;0.90;;;2.60;99.90;;;;;;5080576;28;20048;-66
2022/12/07 04:48:51;;;;;;;4.72;1.08;;;2.60;99.90;;;;;;5080750;28;20032;-64
2022/12/07 04:51:20;;;;;;;6.10;1.20;;;2.50;99.90;;;;;;5079573;28;20038;-64
2022/12/07 04:53:45;;;;;;;9.13;1.90;;;2.50;99.90;;;;;;5085580;28;20036;-64
2022/12/07 04:56:11;;;;;;;5.85;0.93;;;2.50;99.90;;;;;;5079655;28;20613;-64
2022/12/07 04:58:37;;;;;;;5.65;1.27;;;2.40;99.90;;;;;;5074339;28;20040;-66
2022/12/07 05:01:02;;;;;;;7.38;1.05;;;2.40;99.90;;;;;;5064303;28;20071;-65
2022/12/07 05:03:28;;;;;;;6.90;1.27;;;2.40;99.90;;;;;;5065277;28;20078;-64
2022/12/07 05:05:53;;;;;;;4.85;1.13;;;2.40;99.90;;;;;;5080332;28;20047;-64
2022/12/07 05:08:19;;;;;;;6.97;1.27;;;2.30;99.90;;;;;;5078511;28;20043;-66
2022/12/07 05:10:44;;;;;;;6.10;1.30;;;2.30;99.90;;;;;;5080473;28;20447;-65
2022/12/07 05:13:10;;;;;;;6.72;1.25;;;2.20;99.90;;;;;;5079336;28;20146;-63
2022/12/07 05:15:35;;;;;;;7.57;1.00;;;2.30;99.90;;;;;;5081101;28;20059;-64
2022/12/07 05:18:01;;;;;;;6.43;1.50;;;2.40;99.90;;;;;;5079856;28;20048;-63
2022/12/07 05:20:26;;;;;;;4.85;1.00;;;2.40;99.90;;;;;;5083611;28;20071;-65
2022/12/07 05:22:52;;;;;;;6.78;1.05;;;2.50;99.90;;;;;;5063726;28;20036;-66
2022/12/07 05:25:17;;;;;;;2.83;1.00;;;2.60;99.90;;;;;;5083318;28;20130;-67
2022/12/07 05:27:43;;;;;;;6.18;1.25;;;2.50;99.90;;;;;;5081103;28;20040;-66
2022/12/07 05:30:09;;;;;;;8.18;1.13;;;2.50;99.90;;;;;;5081771;28;20059;-67
2022/12/07 05:32:34;;;;;;;6.85;1.25;;;2.40;99.90;;;;;;5080204;28;20024;-65
2022/12/07 05:35:00;;;;;;;6.68;1.10;;;2.40;99.90;;;;;;5081590;28;20040;-66
2022/12/07 05:37:26;;;;;;;5.53;1.05;;;2.30;99.90;;;;;;5085141;28;20032;-64
2022/12/07 05:39:51;;;;;;;7.18;1.00;;;2.20;99.90;;;;;;5081601;28;20040;-64
2022/12/07 05:42:17;;;;;;;6.38;0.90;;;2.20;99.90;;;;;;5083346;28;20090;-66
2022/12/07 05:44:45;;;;;;;7.47;1.00;;;2.10;99.90;;;;;;5091669;28;20164;-64
2022/12/07 05:47:12;;;;;;;5.75;0.98;;;2.10;99.90;;;;;;5087461;28;20087;-65
2022/12/07 05:49:37;;;;;;;7.53;0.93;;;2.10;99.90;;;;;;5084672;28;20073;-66
2022/12/07 05:52:03;;;;;;;5.30;1.20;;;2.00;99.90;;;;;;5087584;28;20135;-63
2022/12/07 05:54:29;;;;;;;5.68;1.30;;;2.00;99.90;;;;;;5082727;28;20059;-64
2022/12/07 05:56:55;;;;;;;6.35;1.38;;;2.00;99.90;;;;;;5080475;28;20039;-64
2022/12/07 05:59:23;;;;;;;7.18;1.20;;;2.00;99.90;;;;;;5082123;28;20040;-64
2022/12/07 06:02:00;;;;;;;9.45;1.30;;;2.00;99.90;;;;;;5081857;28;20071;-64
2022/12/07 06:04:32;;;;;;;8.88;1.70;;;2.00;99.90;;;;;;5080664;28;20451;-64
2022/12/07 06:06:58;;;;;;;4.53;1.20;;;2.00;99.90;;;;;;5080317;28;20047;-64
2022/12/07 06:09:25;;;;;;;7.03;1.35;;;1.90;99.90;;;;;;5097110;28;20052;-63
2022/12/07 06:14:35;;;;;;;7.22;1.10;;;1.90;99.90;;;;;;5077415;28;20048;-65
2022/12/07 06:17:01;;;;;;;8.60;1.38;;;2.00;99.90;;;;;;5079264;28;22759;-64
2022/12/07 06:19:27;;;;;;;7.38;1.00;;;1.90;99.90;;;;;;5078270;28;20048;-65
2022/12/07 06:21:53;;;;;;;11.90;2.08;;;2.00;99.90;;;;;;5080932;28;20050;-66
2022/12/07 06:24:19;;;;;;;9.15;1.10;;;1.90;99.90;;;;;;5080474;28;20089;-65
2022/12/07 06:26:44;;;;;;;6.05;1.25;;;2.00;99.90;;;;;;5083922;28;20036;-65
2022/12/07 06:29:11;;;;;;;8.18;1.30;;;1.90;99.90;;;;;;5087052;28;20529;-64
2022/12/07 06:31:37;;;;;;;8.70;1.30;;;1.90;99.90;;;;;;5091170;28;20475;-64
2022/12/07 06:34:05;;;;;;;7.07;1.23;;;1.90;99.90;;;;;;5092610;28;20111;-63
2022/12/07 06:36:31;;;;;;;5.45;1.33;;;2.00;99.90;;;;;;5090412;28;20046;-64
2022/12/07 06:38:57;;;;;;;10.70;1.30;;;1.90;99.90;;;;;;5085816;28;20525;-63
2022/12/07 06:41:23;;;;;;;9.73;1.52;;;1.90;99.90;;;;;;5070261;28;20029;-64
2022/12/07 06:43:49;;;;;;;8.50;1.50;;;1.90;99.90;;;;;;5080698;28;20047;-65
2022/12/07 06:46:15;;;;;;;9.02;1.13;;;1.80;99.90;;;;;;5091012;28;20075;-64
2022/12/07 06:48:41;;;;;;;7.28;1.17;;;1.90;99.90;;;;;;5086093;28;20086;-64
2022/12/07 06:51:07;;;;;;;7.68;1.42;;;2.00;99.90;;;;;;5082060;28;20036;-63
2022/12/07 06:53:33;;;;;;;2.45;1.15;;;2.10;99.90;;;;;;5088805;28;20036;-64
2022/12/07 06:55:58;;;;;;;5.13;1.33;;;2.10;99.90;;;;;;5081835;28;20048;-65
2022/12/07 06:58:24;;;;;;;8.45;1.23;;;2.20;99.90;;;;;;5077513;28;20513;-64
2022/12/07 07:00:50;;;;;;;7.15;1.10;;;2.20;99.90;;;;;;5081302;28;20068;-64
2022/12/07 07:03:16;;;;;;;8.50;1.20;;;2.20;99.90;;;;;;5052352;28;20044;-63
2022/12/07 07:05:42;;;;;;;9.63;1.27;;;2.20;99.90;;;;;;5069425;28;20048;-63
2022/12/07 07:08:08;;;;;;;6.20;1.27;;;2.30;99.90;;;;;;5070992;28;20094;-63
2022/12/07 07:10:34;;;;;;;9.45;1.20;;;2.30;99.90;;;;;;5075954;28;20041;-64
2022/12/07 07:13:00;;;;;;;7.50;1.25;;;2.30;99.90;;;;;;5077060;28;20060;-66
2022/12/07 07:15:26;;;;;;;5.63;1.20;;;2.20;99.90;;;;;;5076983;28;20097;-64
2022/12/07 07:17:51;;;;;;;5.68;1.20;;;2.20;99.90;;;;;;5106390;28;20035;-66
2022/12/07 07:20:17;;;;;;;7.00;1.20;;;2.20;99.90;;;;;;5072286;28;20467;-64
2022/12/07 07:22:42;;;;;;;8.38;1.23;;;2.20;99.90;;;;;;5072678;28;20539;-67
2022/12/07 07:25:08;;;;;;;3.90;0.82;;;2.10;99.90;;;;;;5063619;28;20521;-66
2022/12/07 07:27:34;;;;;;;3.97;0.90;;;2.00;99.90;;;;;;5096092;28;20027;-65
2022/12/07 07:29:59;;;;;;;7.85;1.40;;;2.00;99.90;;;;;;5077062;28;20155;-64
2022/12/07 07:32:25;;;;;;;6.60;1.10;;;2.00;99.90;;;;;;5083838;28;20047;-64
2022/12/07 07:34:50;;;;;;;4.85;1.10;;;2.00;99.90;;;;;;5085426;28;20038;-64
2022/12/07 07:37:16;;;;;;;4.60;1.05;;;1.90;99.90;;;;;;5091589;28;20061;-64
2022/12/07 07:39:41;;;;;;;11.43;1.58;;;2.00;99.90;;;;;;5086099;28;20039;-65
2022/12/07 07:42:07;;;;;;;8.70;1.23;;;2.00;99.90;;;;;;5081554;28;20502;-64
2022/12/07 07:44:33;;;;;;;7.22;1.60;;;2.10;99.90;;;;;;5086103;28;20407;-63
2022/12/07 07:46:59;;;;;;;4.50;1.20;;;2.20;99.90;;;;;;5077820;28;20028;-65
2022/12/07 07:49:25;;;;;;;12.32;1.80;;;2.30;99.90;;;;;;5082316;28;20131;-65
2022/12/07 07:51:51;;;;;;;5.28;1.45;;;2.40;99.90;;;;;;5092266;28;20188;-65
2022/12/07 07:54:16;;;;;;;9.38;1.80;;;2.50;99.90;;;;;;5091127;28;20040;-66
2022/12/07 07:56:42;;;;;;;5.60;1.02;;;2.60;99.90;;;;;;5094855;28;20071;-65
2022/12/07 07:59:08;;;;;;;3.65;0.90;;;2.60;99.90;;;;;;5096667;28;20040;-65
2022/12/07 08:01:34;;;;;;;5.53;1.23;;;2.60;99.90;;;;;;5098972;28;20047;-64
2022/12/07 08:03:59;;;;;;;4.28;0.95;;;2.60;99.90;;;;;;5092428;28;20040;-64
2022/12/07 08:06:25;;;;;;;5.22;1.13;;;2.60;99.90;;;;;;5096995;28;20451;-65
2022/12/07 08:08:50;;;;;;;5.30;1.13;;;2.60;99.90;;;;;;5089683;28;20036;-65
2022/12/07 08:11:16;;;;;;;7.43;1.10;;;2.50;99.90;;;;;;5095796;28;20047;-64
2022/12/07 08:13:44;;;;;;;3.63;1.13;;;2.50;99.90;;;;;;5084775;28;20151;-66
2022/12/07 08:16:11;;;;;;;6.18;1.05;;;2.40;99.90;;;;;;5076298;28;20044;-64
2022/12/07 08:18:38;;;;;;;5.20;1.08;;;2.40;99.90;;;;;;5093136;28;20044;-64
2022/12/07 08:21:04;;;;;;;4.55;1.52;;;2.30;99.90;;;;;;5076088;28;20043;-65
2022/12/07 08:23:30;;;;;;;5.50;0.98;;;2.20;99.90;;;;;;5090567;28;20058;-64
2022/12/07 08:26:03;;;;;;;6.90;2.03;;;2.20;99.90;;;;;;5079743;28;20131;-65
2022/12/07 08:28:30;;;;;;;10.82;1.95;;;2.20;99.90;;;;;;5067117;28;20072;-64
2022/12/07 08:31:00;;;;;;;5.35;1.75;;;2.10;99.90;;;;;;5077181;28;20047;-65
2022/12/07 08:33:26;;;;;;;5.35;1.35;;;2.10;99.90;;;;;;5086711;28;20491;-64
2022/12/07 08:35:51;;;;;;;8.00;1.55;;;2.20;99.90;;;;;;5076923;28;20054;-68
2022/12/07 08:38:17;;;;;;;9.50;2.33;;;2.20;99.90;;;;;;5089906;28;20460;-66
2022/12/07 08:40:42;;;;;;;8.85;2.65;;;2.20;99.90;;;;;;5084113;28;20036;-64
2022/12/07 08:43:08;;;;;;;8.20;2.95;;;2.30;99.90;;;;;;5056796;28;20075;-66
2022/12/07 08:45:35;;;;;;;5.15;1.70;;;2.30;99.90;;;;;;5090773;28;20036;-68
2022/12/07 08:48:13;;;;;;;7.30;1.70;;;2.30;99.90;;;;;;5093464;28;20052;-64
2022/12/07 08:50:39;;;;;;;7.75;1.73;;;2.40;99.90;;;;;;5091840;28;20051;-65
2022/12/07 08:53:06;;;;;;;6.72;1.30;;;2.40;99.90;;;;;;5093949;28;20076;-64
2022/12/07 08:55:33;;;;;;;5.90;1.90;;;2.50;99.90;;;;;;5090903;28;20036;-62
2022/12/07 08:57:59;;;;;;;5.50;1.58;;;2.50;99.90;;;;;;5076768;28;20094;-65
2022/12/07 09:00:26;;;;;;;5.50;1.42;;;2.70;99.90;;;;;;5071408;28;20040;-64
2022/12/07 09:02:51;;;;;;;5.85;1.80;;;2.70;99.90;;;;;;5076097;28;20037;-66
2022/12/07 09:05:17;;;;;;;6.20;1.70;;;2.70;99.90;;;;;;5074771;28;20051;-64
2022/12/07 09:07:50;;;;;;;4.03;1.35;;;2.70;99.90;;;;;;5083449;28;20036;-65
2022/12/07 09:10:16;;;;;;;6.13;1.45;;;2.80;99.90;;;;;;5070150;28;20154;-66
2022/12/07 09:12:41;;;;;;;8.45;1.60;;;2.80;99.90;;;;;;5078953;28;20127;-65
2022/12/07 09:15:08;;;;;;;7.07;1.60;;;2.70;99.90;;;;;;5094062;28;20496;-64
2022/12/07 09:17:34;;;;;;;13.05;2.03;;;2.70;99.90;;;;;;5110740;28;20478;-65
2022/12/07 09:20:00;;;;;;;10.50;1.48;;;2.80;99.90;;;;;;5093799;28;20051;-64
2022/12/07 09:22:33;;;;;;;5.13;1.23;;;2.90;99.90;;;;;;5085769;28;20036;-65
2022/12/07 09:24:59;;;;;;;12.70;1.63;;;3.00;99.90;;;;;;5082000;28;20043;-65
2022/12/07 09:27:26;;;;;;;5.25;2.03;;;3.10;99.90;;;;;;5112289;28;20378;-65
2022/12/07 09:29:52;;;;;;;4.13;1.60;;;3.00;99.90;;;;;;5086934;28;20395;-64
2022/12/07 09:32:17;;;;;;;7.10;1.75;;;3.00;99.90;;;;;;5092790;28;20059;-65
2022/12/07 09:34:43;;;;;;;8.52;1.30;;;3.00;99.90;;;;;;5093783;28;20036;-64
2022/12/07 09:37:09;;;;;;;5.85;1.30;;;3.00;99.90;;;;;;5112699;28;20039;-65
2022/12/07 09:39:38;;;;;;;10.43;1.77;;;3.00;99.90;;;;;;5091099;28;20059;-64
2022/12/07 09:42:04;;;;;;;4.30;1.35;;;3.00;99.90;;;;;;5092093;28;20044;-64
2022/12/07 09:44:30;;;;;;;8.90;1.58;;;3.00;99.90;;;;;;5093163;28;20075;-64
2022/12/07 09:46:56;;;;;;;10.95;1.58;;;3.10;99.90;;;;;;5090902;28;20064;-65
2022/12/07 09:49:25;;;;;;;8.70;1.50;;;3.20;99.90;;;;;;5091604;28;20040;-64
2022/12/07 09:52:24;;;;;;;9.60;1.90;;;3.30;99.90;;;;;;5094305;28;20067;-64
2022/12/07 09:54:50;;;;;;;5.15;1.33;;;3.50;99.90;;;;;;5104996;28;20028;-65
2022/12/07 09:57:17;;;;;;;5.85;1.50;;;3.70;99.90;;;;;;5090526;28;20368;-65
2022/12/07 09:59:43;;;;;;;4.97;1.35;;;3.90;99.90;;;;;;5091973;28;20054;-64
2022/12/07 10:02:35;;;;;;;5.45;1.65;;;4.10;99.90;;;;;;5092493;28;20035;-65
2022/12/07 10:05:01;;;;;;;10.57;1.98;;;4.20;99.90;;;;;;5097542;28;20043;-64
2022/12/07 10:07:26;;;;;;;8.65;1.67;;;4.30;99.90;;;;;;5089532;28;20035;-65
2022/12/07 10:09:52;;;;;;;9.85;2.10;;;4.20;99.90;;;;;;5111420;28;20032;-65
2022/12/07 10:12:17;;;;;;;13.27;1.60;;;4.20;99.90;;;;;;5094059;28;20174;-66
2022/12/07 10:15:15;;;;;;;7.88;1.65;;;4.20;99.90;;;;;;5087852;28;20056;-64
2022/12/07 10:17:48;;;;;;;9.15;1.77;;;4.20;99.90;;;;;;5050537;28;20060;-67
2022/12/07 10:20:15;;;;;;;9.05;1.80;;;4.30;99.90;;;;;;5091901;28;20039;-64
2022/12/07 10:22:58;;;;;;;8.13;1.38;;;4.20;99.90;;;;;;5086562;28;20050;-65
2022/12/07 10:25:28;;;;;;;8.05;1.80;;;4.30;99.90;;;;;;5081582;28;20039;-64
2022/12/07 10:28:07;;;;;;;7.60;1.92;;;4.30;99.90;;;;;;5090152;28;20075;-64
2022/12/07 10:30:46;;;;;;;5.60;1.48;;;4.30;99.90;;;;;;5095315;28;20036;-65
2022/12/07 10:33:31;;;;;;;4.85;1.25;;;4.40;99.90;;;;;;5086633;28;20082;-67
2022/12/07 10:35:58;;;;;;;6.28;1.42;;;4.40;99.90;;;;;;5076558;28;20445;-65
2022/12/07 10:38:26;;;;;;;6.93;1.90;;;4.40;99.90;;;;;;5089727;28;20040;-64
2022/12/07 10:41:06;;;;;;;10.10;1.50;;;4.40;99.90;;;;;;5074026;28;20140;-64
2022/12/07 10:43:32;;;;;;;4.25;1.70;;;4.40;99.90;;;;;;5085733;28;20039;-64
2022/12/07 10:46:13;;;;;;;4.82;1.30;;;4.40;99.90;;;;;;5087080;28;20081;-64
2022/12/07 10:48:44;;;;;;;9.60;1.33;;;4.40;99.90;;;;;;5091884;28;20043;-64
2022/12/07 10:51:25;;;;;;;8.13;1.23;;;4.30;99.90;;;;;;5090077;28;20048;-64
2022/12/07 10:54:30;;;;;;;3.22;1.30;;;4.30;99.90;;;;;;5089444;28;20101;-63
2022/12/07 10:57:09;;;;;;;8.30;1.10;;;4.30;99.90;;;;;;5097284;28;20516;-64
2022/12/07 11:00:04;;;;;;;4.63;0.85;;;4.40;99.90;;;;;;5088753;28;20048;-64
2022/12/07 11:02:47;;;;;;;7.95;1.20;;;4.50;99.90;;;;;;5091348;28;20050;-65
2022/12/07 11:06:03;;;;;;;3.97;1.00;;;4.60;99.90;;;;;;5105973;28;20479;-63
2022/12/07 11:08:59;;;;;;;3.28;0.90;;;4.70;99.90;;;;;;5045811;28;20108;-65
2022/12/07 11:11:38;;;;;;;5.97;1.08;;;4.70;99.90;;;;;;5088621;28;20040;-64
2022/12/07 11:14:03;;;;;;;4.85;1.35;;;4.60;99.90;;;;;;5103445;28;20048;-63
2022/12/07 11:16:52;;;;;;;4.32;1.10;;;4.50;99.90;;;;;;5093542;28;20505;-64
2022/12/07 11:19:51;;;;;;;6.50;0.98;;;4.50;99.90;;;;;;5090221;28;20059;-65
2022/12/07 11:22:36;;;;;;;5.07;1.35;;;4.60;99.90;;;;;;5085360;28;20046;-64
2022/12/07 11:25:31;;;;;;;5.82;1.55;;;4.60;99.90;;;;;;5088478;28;20080;-64
2022/12/07 11:28:30;;;;;;;6.07;1.85;;;4.60;99.90;;;;;;5071264;28;20115;-63
2022/12/07 11:31:29;;;;;;;6.57;1.35;;;4.60;99.90;;;;;;5093604;28;20122;-64
2022/12/07 11:34:13;;;;;;;4.95;1.60;;;4.60;99.90;;;;;;5107009;28;20028;-63
2022/12/07 11:36:43;;;;;;;4.85;1.38;;;4.60;99.90;;;;;;5082145;28;20356;-65
2022/12/07 11:39:44;;;;;;;6.63;0.95;;;4.70;99.90;;;;;;5089720;28;20048;-65
2022/12/07 11:42:27;;;;;;;8.65;1.70;;;4.60;99.90;;;;;;5082472;28;20052;-67
2022/12/07 11:44:58;;;;;;;3.38;1.20;;;4.60;99.90;;;;;;5087963;28;20040;-65
2022/12/07 11:47:50;;;;;;;9.10;2.15;;;4.50;99.90;;;;;;5079117;28;20044;-65
2022/12/07 11:50:30;;;;;;;8.13;1.30;;;4.40;99.90;;;;;;5076058;28;20040;-65
2022/12/07 11:53:08;;;;;;;;;;;4.30;99.90;;;;;;5089575;28;20047;-65
2022/12/07 11:55:52;;;;;;;7.72;1.10;;;4.20;99.90;;;;;;5082666;28;19970;-64
2022/12/07 11:58:21;;;;;;;6.95;1.60;;;4.10;99.90;;;;;;5101946;28;20095;-65
2022/12/07 12:00:52;;;;;;;1.85;0.60;;;4.00;99.90;;;;;;5086655;28;20036;-64
2022/12/07 12:03:42;;;;;;;3.70;1.20;;;3.90;99.90;;;;;;5080800;28;20440;-66
2022/12/07 12:06:07;;;;;;;4.38;2.08;;;4.10;99.90;;;;;;5098669;28;20044;-64
2022/12/07 12:08:39;;;;;;;4.10;1.15;;;4.10;99.90;;;;;;5086213;28;20035;-64
2022/12/07 12:11:17;;;;;;;6.50;0.90;;;4.00;99.90;;;;;;5086091;28;20040;-65
2022/12/07 12:14:14;;;;;;;1.25;0.50;;;4.20;99.90;;;;;;5085268;28;20138;-64
2022/12/07 12:16:58;;;;;;;3.05;0.50;;;4.20;99.90;;;;;;5068082;28;20121;-65
2022/12/07 12:19:45;;;;;;;4.65;0.70;;;4.30;99.90;;;;;;5098441;28;20043;-64
2022/12/07 12:22:23;;;;;;;6.05;0.90;;;4.30;99.90;;;;;;5106272;28;20709;-64
2022/12/07 12:24:53;;;;;;;4.97;1.00;;;4.40;99.90;;;;;;5089233;28;20047;-64
2022/12/07 12:27:31;;;;;;;2.63;1.00;;;4.30;99.90;;;;;;5084408;28;20067;-65
2022/12/07 12:30:00;;;;;;;4.00;0.82;;;4.50;99.90;;;;;;5106668;28;20039;-64
2022/12/07 12:32:39;;;;;;;2.20;0.60;;;4.50;99.90;;;;;;5090767;28;20438;-64
2022/12/07 12:35:36;;;;;;;4.13;0.87;;;4.50;99.90;;;;;;5107939;28;20475;-64
2022/12/07 12:38:29;;;;;;;3.65;0.95;;;4.50;99.90;;;;;;5107934;28;20044;-65
2022/12/07 12:40:56;;;;;;;5.05;1.08;;;4.50;99.90;;;;;;5092703;28;20428;-64
2022/12/07 12:43:47;;;;;;;4.03;1.10;;;4.50;99.90;;;;;;5091988;28;20040;-64
2022/12/07 12:46:34;;;;;;;4.72;2.35;;;4.70;99.90;;;;;;5112204;28;20444;-63
2022/12/07 12:49:21;;;;;;;6.88;1.65;;;4.60;99.90;;;;;;5092157;28;20129;-66
2022/12/07 12:51:52;;;;;;;8.43;1.67;;;4.60;99.90;;;;;;5113747;28;20088;-65
2022/12/07 12:54:18;;;;;;;4.93;1.45;;;4.60;99.90;;;;;;5112513;28;20453;-64
2022/12/07 12:57:20;;;;;;;6.60;2.05;;;4.70;99.90;;;;;;5094156;28;20047;-63
2022/12/07 12:59:51;;;;;;;5.57;2.10;;;4.60;99.90;;;;;;5088968;28;20048;-63
2022/12/07 13:02:29;;;;;;;4.97;2.22;;;4.50;99.90;;;;;;5114559;28;20036;-64
2022/12/07 13:05:19;;;;;;;6.50;2.85;;;4.60;99.90;;;;;;5114208;28;20046;-65
2022/12/07 13:07:51;;;;;;;6.75;1.77;;;4.50;99.90;;;;;;5113444;28;20060;-65
2022/12/07 13:10:28;;;;;;;7.97;2.00;;;4.50;99.90;;;;;;5112668;28;20051;-64
2022/12/07 13:13:14;;;;;;;10.23;2.05;;;4.60;99.90;;;;;;5077662;28;20133;-64
2022/12/07 13:15:42;;;;;;;8.10;2.60;;;4.60;99.90;;;;;;5096617;28;20050;-64
2022/12/07 13:18:26;;;;;;;6.85;2.65;;;4.60;99.90;;;;;;5087430;28;20071;-63
2022/12/07 13:20:59;;;;;;;10.93;2.58;;;4.40;99.90;;;;;;5096436;28;20044;-65
2022/12/07 13:23:27;;;;;;;8.82;2.17;;;4.50;99.90;;;;;;5091173;28;20063;-64